Latest Weather Observations for Cowra

IDN60801

Issued at 10:02 pm EST Saturday 30 May 2015 (issued every 30 minutes, with the page automatically refreshed every 10 minutes)

About weather observations | Map of weather stations | Latest weather observations for NSW | Other Formats
Station Details ID: 065111 Name: COWRA AIRPORT AWS Lat: -33.84 Lon: 148.65 Height: 296.5 m
Data from the previous 72 hours. | See also: Recent months at Cowra
Date/Time
EST
Temp
°C
App
Temp
°C
Dew
Point
Rel
Hum
%
Delta-T
°C
Wind Press
QNH
hPa
Press
MSL
hPa
Rain
since 9 am
mm
Dir
 
Spd
km/h
Gust
km/h
Spd
kts
Gust
kts
30/10:00pm 7.9 7.1 6.5 91 0.7 CALM 0 0 0 0 1020.5 - 0.0
30/09:30pm 8.5 6.8 6.1 85 1.1 ESE 4 6 2 3 1020.7 - 0.0
30/09:00pm 8.9 7.1 7.0 88 0.9 ESE 6 7 3 4 1021.1 1021.3 0.0
30/08:30pm 8.1 7.3 6.4 89 0.8 CALM 0 0 0 0 1021.2 - 0.0
30/08:00pm 8.4 7.4 5.7 83 1.2 CALM 0 0 0 0 1021.2 - 0.0
30/07:30pm 9.5 8.6 6.2 80 1.5 CALM 0 0 0 0 1021.5 - 0.0
30/07:00pm 8.9 8.0 6.2 83 1.3 CALM 0 0 0 0 1021.5 - 0.0
30/06:30pm 10.4 9.6 6.5 77 1.9 CALM 0 0 0 0 1021.3 - 0.0
30/06:00pm 10.2 9.4 6.4 77 1.8 CALM 0 0 0 0 1021.0 1021.1 0.0
30/05:30pm 10.8 10.0 6.6 75 2.0 CALM 0 0 0 0 1020.6 - 0.0
30/05:00pm 11.3 10.5 6.6 73 2.3 CALM 0 0 0 0 1020.5 - 0.0
30/04:30pm 12.1 10.2 6.6 69 2.7 SSW 6 7 3 4 1020.8 - 0.0
30/04:00pm 12.6 10.6 6.2 65 3.1 WSW 6 7 3 4 1020.8 - 0.0
30/03:30pm 12.8 10.8 6.4 65 3.1 WSW 6 9 3 5 1021.0 - 0.0
30/03:00pm 13.0 10.7 5.9 62 3.4 SSW 7 7 4 4 1020.7 1020.9 0.0
30/02:30pm 13.1 9.8 6.2 63 3.3 SSW 13 17 7 9 1021.0 - 0.0
30/02:00pm 13.1 10.1 5.8 61 3.5 SW 11 19 6 10 1021.0 - 0.0
30/01:30pm 13.2 10.8 7.0 66 3.0 WSW 9 11 5 6 1021.2 - 0.0
30/01:00pm 13.4 11.5 7.4 67 3.0 S 7 11 4 6 1021.5 - 0.0
30/12:30pm 12.5 11.2 7.8 73 2.3 SSW 4 7 2 4 1022.1 - 0.0
30/12:00pm 12.2 11.2 9.0 81 1.6 ESE 4 7 2 4 1022.1 1022.4 0.0
30/11:30am 11.6 11.7 10.3 92 0.7 CALM 0 0 0 0 1023.1 - 0.0
30/11:00am 10.6 10.4 10.4 99 0.1 S 2 7 1 4 1023.8 - 0.0
30/10:30am 9.7 8.3 9.7 100 0.0 SSE 7 11 4 6 1024.2 - 0.0
30/10:00am 8.9 7.3 8.9 100 0.0 SSE 7 9 4 5 1024.2 - 0.0
30/09:30am 8.4 7.7 8.4 100 0.0 SE 2 6 1 3 1024.3 - 0.0
30/09:00am 7.6 7.0 7.6 100 0.0 CALM 0 0 0 0 1024.3 1024.4 0.4
30/08:30am 7.2 6.6 7.2 100 0.0 CALM 0 0 0 0 1024.4 - 0.4
30/08:00am 6.7 5.9 6.7 100 0.0 CALM 0 6 0 3 1024.1 - 0.4
30/07:30am 6.5 4.9 6.5 100 0.0 SE 4 7 2 4 1024.0 - 0.4
30/07:00am 6.5 4.6 6.5 100 0.0 S 6 9 3 5 1023.9 - 0.4
30/06:30am 6.3 5.5 6.3 100 0.0 CALM 0 0 0 0 1023.6 - 0.4
30/06:00am 5.9 4.9 5.8 99 0.0 CALM 0 0 0 0 1023.5 1023.6 0.4
30/05:30am 6.0 5.1 5.9 99 0.0 CALM 0 0 0 0 1023.1 - 0.2
30/05:00am 5.9 4.9 5.8 99 0.0 CALM 0 0 0 0 1023.1 - 0.2
30/04:30am 6.4 5.6 6.3 99 0.0 CALM 0 0 0 0 1023.3 - 0.2
30/04:00am 6.3 5.4 6.2 99 0.0 CALM 0 0 0 0 1023.5 - 0.2
30/03:30am 6.9 6.2 6.8 99 0.0 CALM 0 0 0 0 1023.6 - 0.2
30/03:00am 7.5 6.5 7.4 99 0.0 SSE 2 6 1 3 1023.7 1024.0 0.2
30/02:30am 7.6 6.3 7.5 99 0.0 SE 4 6 2 3 1024.0 - 0.2
30/02:00am 7.6 7.0 7.5 99 0.0 CALM 0 0 0 0 1024.5 - 0.2
30/01:30am 6.8 6.0 6.7 99 0.0 CALM 0 0 0 0 1024.4 - 0.2
30/01:00am 7.5 6.9 7.4 99 0.0 CALM 0 0 0 0 1024.2 - 0.2
30/12:30am 7.1 6.4 7.0 99 0.0 CALM 0 0 0 0 1024.5 - 0.2
30/12:00am 7.0 6.3 6.9 99 0.0 CALM 0 0 0 0 1024.5 1024.7 0.2
 
Date/Time
EST
Temp
°C
App
Temp
°C
Dew
Point
Rel
Hum
%
Delta-T
°C
Wind Press
QNH
hPa
Press
MSL
hPa
Rain
since 9 am
mm
Dir
 
Spd
km/h
Gust
km/h
Spd
kts
Gust
kts
29/11:30pm 6.9 6.2 6.8 99 0.0 CALM 0 0 0 0 1024.5 - 0.2
29/11:00pm 7.6 7.0 7.5 99 0.0 CALM 0 0 0 0 1024.5 - 0.2
29/10:30pm 8.1 7.6 8.0 99 0.0 CALM 0 0 0 0 1024.3 - 0.2
29/10:00pm 7.6 6.8 6.7 94 0.4 CALM 0 0 0 0 1024.5 - 0.2
29/09:30pm 7.4 6.3 5.2 86 1.0 CALM 0 0 0 0 1024.5 - 0.2
29/09:00pm 9.9 9.6 8.7 92 0.6 CALM 0 0 0 0 1024.2 1024.3 0.2
29/08:30pm 10.2 10.0 9.0 92 0.6 CALM 0 0 0 0 1024.1 - 0.2
29/08:00pm 10.4 9.9 9.2 92 0.6 NNW 2 7 1 4 1024.1 - 0.2
29/07:30pm 11.3 11.2 9.6 89 0.9 CALM 0 0 0 0 1023.9 - 0.2
29/07:00pm 10.6 10.0 9.0 90 0.8 WNW 2 7 1 4 1023.8 - 0.2
29/06:30pm 12.2 11.1 9.9 86 1.2 SE 6 9 3 5 1023.4 - 0.2
29/06:00pm 9.8 9.0 6.5 80 1.6 CALM 0 0 0 0 1023.2 1023.4 0.2
29/05:30pm 12.8 11.5 9.3 79 1.8 S 6 7 3 4 1022.9 - 0.2
29/05:00pm 13.4 12.9 9.3 76 2.1 SSW 2 7 1 4 1022.7 - 0.2
29/04:30pm 14.6 12.8 9.4 71 2.7 SSW 9 15 5 8 1022.5 - 0.2
29/04:00pm 16.1 13.6 9.8 66 3.3 SW 13 15 7 8 1022.2 - 0.2
29/03:30pm 16.6 13.9 10.2 66 3.4 WSW 15 19 8 10 1022.2 - 0.2
29/03:00pm 16.8 14.1 10.2 65 3.5 SW 15 19 8 10 1022.1 1022.3 0.2
29/02:30pm 16.8 14.1 10.2 65 3.5 SW 15 20 8 11 1021.9 - 0.2
29/02:00pm 16.8 14.6 10.9 68 3.2 WSW 13 17 7 9 1022.0 - 0.2
29/01:30pm 16.6 14.4 10.7 68 3.2 WSW 13 19 7 10 1021.9 - 0.2
29/01:00pm 16.2 13.4 10.1 67 3.3 WSW 15 20 8 11 1022.2 - 0.2
29/12:30pm 16.3 14.4 11.9 75 2.4 WSW 13 20 7 11 1022.2 - 0.2
29/12:00pm 16.1 15.5 13.6 85 1.4 N 9 11 5 6 1022.4 1022.5 0.2
29/11:30am 15.7 15.7 15.1 96 0.4 N 9 13 5 7 1022.8 - 0.2
29/11:00am 14.8 14.1 14.2 96 0.3 NNW 11 15 6 8 1023.3 - 0.2
29/10:30am 14.4 13.7 14.2 99 0.1 N 11 15 6 8 1023.2 - 0.2
29/10:00am 14.2 13.5 14.2 100 0.0 N 11 15 6 8 1023.2 - 0.0
29/09:30am 14.1 14.1 14.1 100 0.0 N 7 11 4 6 1023.2 - 0.0
29/09:00am 14.0 13.9 14.0 100 0.0 NW 7 7 4 4 1022.6 1022.8 5.6
29/08:30am 13.7 13.7 13.5 99 0.1 NNW 6 7 3 4 1022.7 - 5.6
29/08:00am 13.7 13.5 13.7 100 0.0 WNW 7 11 4 6 1022.2 - 5.6
29/07:30am 13.5 11.8 13.5 100 0.0 NW 15 20 8 11 1022.0 - 5.6
29/07:00am 13.4 12.0 13.4 100 0.0 N 13 15 7 8 1021.6 - 5.4
29/06:30am 13.4 11.6 13.4 100 0.0 N 15 17 8 9 1021.4 - 5.4
29/06:00am 13.4 12.0 13.4 100 0.0 N 13 17 7 9 1021.2 1021.4 4.8
29/05:30am 13.4 12.0 13.4 100 0.0 N 13 15 7 8 1020.9 - 4.8
29/05:00am 13.2 11.7 13.2 100 0.0 N 13 17 7 9 1020.6 - 4.8
29/04:30am 13.2 12.1 13.2 100 0.0 N 11 13 6 7 1020.4 - 4.6
29/04:00am 13.1 12.7 13.1 100 0.0 N 7 7 4 4 1020.3 - 4.2
29/03:30am 13.3 14.3 13.3 100 0.0 CALM 0 0 0 0 1020.2 - 3.2
29/03:00am 13.3 14.3 13.1 99 0.1 CALM 0 0 0 0 1020.3 1020.5 2.4
29/02:30am 13.5 13.4 13.3 99 0.1 NW 6 7 3 4 1020.2 - 1.0
29/02:00am 13.6 12.6 13.4 99 0.1 N 11 13 6 7 1020.2 - 0.8
29/01:30am 13.6 13.3 13.3 98 0.2 NNW 7 11 4 6 1020.4 - 0.6
29/01:00am 13.9 12.4 13.0 94 0.5 NNW 13 15 7 8 1020.5 - 0.2
29/12:30am 14.0 12.4 12.9 93 0.6 NNW 13 17 7 9 1020.6 - 0.2
29/12:00am 14.5 11.8 12.9 90 0.9 N 19 22 10 12 1020.7 1020.9 0.2
 
Date/Time
EST
Temp
°C
App
Temp
°C
Dew
Point
Rel
Hum
%
Delta-T
°C
Wind Press
QNH
hPa
Press
MSL
hPa
Rain
since 9 am
mm
Dir
 
Spd
km/h
Gust
km/h
Spd
kts
Gust
kts
28/11:30pm 14.2 11.5 13.4 95 0.5 N 20 26 11 14 1020.7 - 0.2
28/11:00pm 14.2 11.7 13.4 95 0.5 N 19 24 10 13 1021.1 - 0.2
28/10:30pm 14.6 11.9 13.0 90 0.9 N 19 24 10 13 1021.3 - 0.2
28/10:00pm 14.5 12.6 13.0 91 0.8 N 15 20 8 11 1021.3 - 0.2
28/09:30pm 14.4 12.9 13.0 91 0.8 NNW 13 17 7 9 1021.5 - 0.2
28/09:00pm 14.2 13.4 12.9 92 0.7 N 9 11 5 6 1021.3 1021.5 0.2
28/08:30pm 14.6 13.3 12.6 88 1.1 NNW 11 15 6 8 1021.4 - 0.2
28/08:00pm 14.5 14.0 12.5 88 1.1 N 7 11 4 6 1021.3 - 0.2
28/07:30pm 14.3 13.4 12.7 90 0.9 N 9 11 5 6 1021.2 - 0.2
28/07:00pm 15.1 14.8 13.3 89 1.0 N 7 13 4 7 1021.1 - 0.2
28/06:30pm 14.0 12.8 12.9 93 0.6 N 11 13 6 7 1021.0 - 0.2
28/06:00pm 13.6 12.8 13.0 96 0.3 N 9 11 5 6 1021.0 1021.2 0.2
28/05:30pm 14.3 13.7 13.5 95 0.5 N 9 11 5 6 1020.7 - 0.2
28/05:00pm 14.2 13.5 13.1 93 0.6 N 9 11 5 6 1020.7 - 0.2
28/04:30pm 14.6 13.8 13.0 90 0.9 NNW 9 9 5 5 1021.1 - 0.2
28/04:00pm 15.5 14.4 13.2 86 1.3 NNW 11 13 6 7 1021.0 - 0.2
28/03:30pm 15.7 13.7 12.8 83 1.6 NNW 15 17 8 9 1021.2 - 0.2
28/03:00pm 15.9 13.7 13.4 85 1.4 NNW 17 20 9 11 1021.2 1021.3 0.2
28/02:30pm 15.7 12.9 12.5 81 1.8 N 19 24 10 13 1021.3 - 0.2
28/02:00pm 16.8 15.0 13.3 80 2.0 NNW 15 20 8 11 1021.4 - 0.2
28/01:30pm 15.5 14.8 12.1 80 1.9 N 7 11 4 6 1021.8 - 0.2
28/01:00pm 14.1 14.1 11.1 82 1.6 NNW 2 6 1 3 1022.2 - 0.2
28/12:30pm 13.2 13.2 11.1 87 1.1 NNE 2 7 1 4 1022.8 - 0.2
28/12:00pm 12.4 12.5 10.1 86 1.2 CALM 0 0 0 0 1023.4 1023.6 0.2
28/11:30am 11.9 12.0 10.0 88 1.0 CALM 0 0 0 0 1024.0 - 0.2
28/11:00am 11.3 11.2 9.4 88 1.0 CALM 0 0 0 0 1024.2 - 0.2
28/10:30am 10.9 10.8 9.3 90 0.8 CALM 0 0 0 0 1024.7 - 0.0
28/10:00am 10.7 10.1 9.1 90 0.8 SSW 2 7 1 4 1024.7 - 0.0
28/09:30am 10.8 10.5 8.7 87 1.1 CALM 0 0 0 0 1024.6 - 0.0
28/09:00am 10.4 8.9 8.3 87 1.0 SSE 6 7 3 4 1024.4 1024.6 0.0
28/08:30am 10.3 8.8 9.2 93 0.6 ESE 7 11 4 6 1023.8 - 0.0
28/08:00am 8.6 7.1 8.5 99 0.0 S 6 7 3 4 1024.0 - 0.0
28/07:30am 8.3 6.6 8.2 99 0.0 S 7 9 4 5 1024.2 - 0.0
28/07:00am 8.3 6.6 8.2 99 0.0 S 7 9 4 5 1023.8 - 0.0
28/06:30am 8.1 6.5 8.0 99 0.0 SE 6 9 3 5 1023.6 - 0.0
28/06:00am 7.8 5.9 7.7 99 0.0 ESE 7 13 4 7 1023.2 1023.4 0.0
28/05:30am 7.5 6.5 7.5 100 0.0 SSE 2 6 1 3 1023.4 - 0.0
28/05:00am 6.6 5.8 6.6 100 0.0 CALM 0 0 0 0 1023.2 - 0.0
28/04:30am 5.4 3.2 5.3 99 0.0 SW 6 9 3 5 1023.2 - 0.0
28/04:00am 5.8 4.4 5.7 99 0.0 S 2 6 1 3 1022.8 - 0.0
28/03:30am 5.7 3.4 5.6 99 0.0 S 7 11 4 6 1022.8 - 0.0
28/03:00am 6.6 4.5 6.5 99 0.0 SE 7 9 4 5 1023.1 1023.3 0.0
28/02:30am 6.1 4.4 6.0 99 0.0 S 4 7 2 4 1023.2 - 0.0
28/02:00am 6.2 4.2 6.1 99 0.0 SSE 6 7 3 4 1023.2 - 0.0
28/01:30am 6.7 4.8 6.6 99 0.0 SSE 6 6 3 3 1023.4 - 0.0
28/01:00am 7.1 6.0 7.0 99 0.0 ESE 2 9 1 5 1023.6 - 0.0
28/12:30am 7.4 6.0 7.3 99 0.0 E 4 7 2 4 1023.9 - 0.0
28/12:00am 7.1 6.4 7.0 99 0.0 CALM 0 0 0 0 1024.0 1024.2 0.0
 
Date/Time
EST
Temp
°C
App
Temp
°C
Dew
Point
Rel
Hum
%
Delta-T
°C
Wind Press
QNH
hPa
Press
MSL
hPa
Rain
since 9 am
mm
Dir
 
Spd
km/h
Gust
km/h
Spd
kts
Gust
kts
27/11:30pm 6.7 5.9 6.6 99 0.0 CALM 0 0 0 0 1023.9 - 0.0
27/11:00pm 6.2 5.3 6.1 99 0.0 CALM 0 0 0 0 1024.0 - 0.0
27/10:30pm 7.0 5.5 6.9 99 0.0 ENE 4 9 2 5 1023.8 - 0.0

Other Formats:

Comma delimited format used in spreadsheet applications
http://www.bom.gov.au/fwo/IDN60801/IDN60801.95721.axf

JavaScript Object Notation format (JSON) in row-major order
http://www.bom.gov.au/fwo/IDN60801/IDN60801.95721.json